Time;durP1;ratioP1;P1;durP2;ratioP2;P2;SDS_P1;SDS_P2;PMS_P1;PMS_P2;Temp;Humidity;BMP_temperature;BMP_pressure;BME280_temperature;BME280_humidity;BME280_pressure;Samples;Min_cycle;Max_cycle;Signal;HPM_P1;HPM_P2
2022/11/07 00:01:52;;;;;;;2.80;2.60;;;21.20;66.50;;;;;;5026929;28;20466;-85
2022/11/07 00:04:20;;;;;;;4.73;3.17;;;21.20;66.50;;;;;;5026701;28;20961;-84
2022/11/07 00:06:48;;;;;;;2.93;2.73;;;21.20;66.50;;;;;;5030321;28;20950;-85
2022/11/07 00:09:16;;;;;;;3.90;2.80;;;21.20;66.40;;;;;;5031786;28;20921;-85
2022/11/07 00:11:45;;;;;;;3.40;3.10;;;21.20;66.30;;;;;;5029145;28;20471;-85
2022/11/07 00:14:13;;;;;;;4.50;3.23;;;21.20;66.40;;;;;;5016881;28;20458;-85
2022/11/07 00:16:44;;;;;;;3.27;3.07;;;21.20;66.30;;;;;;5015599;28;20459;-84
2022/11/07 00:19:14;;;;;;;3.20;2.83;;;21.20;66.30;;;;;;5017341;28;20478;-85
2022/11/07 00:21:42;;;;;;;3.33;3.03;;;21.20;66.30;;;;;;5025523;28;20447;-85
2022/11/07 00:24:10;;;;;;;6.57;2.77;;;21.20;66.20;;;;;;5021144;28;20459;-85
2022/11/07 00:26:39;;;;;;;3.20;2.90;;;21.20;66.20;;;;;;5028497;28;20464;-84
2022/11/07 00:29:07;;;;;;;4.33;3.40;;;21.20;66.20;;;;;;5012260;28;20462;-85
2022/11/07 00:31:35;;;;;;;3.03;2.73;;;21.20;66.10;;;;;;5030017;28;20484;-84
2022/11/07 00:34:04;;;;;;;3.00;2.73;;;21.20;66.10;;;;;;5024437;28;20462;-85
2022/11/07 00:36:33;;;;;;;3.23;2.70;;;21.20;66.00;;;;;;5023652;28;20443;-85
2022/11/07 00:39:01;;;;;;;3.37;2.40;;;21.20;65.80;;;;;;5030285;28;20513;-85
2022/11/07 00:41:29;;;;;;;3.10;2.77;;;21.20;66.00;;;;;;5030833;28;20459;-85
2022/11/07 00:43:57;;;;;;;3.13;2.83;;;21.20;65.80;;;;;;5031870;28;20496;-86
2022/11/07 00:46:26;;;;;;;3.90;2.60;;;21.20;65.80;;;;;;5021083;28;20483;-86
2022/11/07 00:48:54;;;;;;;2.63;2.43;;;21.20;65.90;;;;;;5025169;28;20457;-85
2022/11/07 00:51:25;;;;;;;4.10;2.53;;;21.20;65.80;;;;;;5029193;28;20489;-85
2022/11/07 00:53:53;;;;;;;3.40;2.63;;;21.20;65.90;;;;;;5030903;28;20442;-84
2022/11/07 00:56:24;;;;;;;4.33;3.27;;;21.20;65.90;;;;;;5029507;28;20471;-85
2022/11/07 00:58:56;;;;;;;2.47;2.37;;;21.20;65.90;;;;;;5028312;28;20446;-85
2022/11/07 01:01:26;;;;;;;3.30;2.73;;;21.20;65.90;;;;;;5030385;28;20454;-85
2022/11/07 01:06:44;;;;;;;3.37;2.73;;;21.20;65.80;;;;;;5030798;28;20463;-85
2022/11/07 01:09:15;;;;;;;3.00;2.80;;;21.20;65.80;;;;;;5026717;28;20460;-85
2022/11/07 01:11:43;;;;;;;2.90;2.70;;;21.20;65.50;;;;;;5030751;28;20826;-85
2022/11/07 01:14:13;;;;;;;3.83;2.70;;;21.20;65.60;;;;;;5034443;28;20459;-85
2022/11/07 01:16:41;;;;;;;3.33;3.13;;;21.20;65.40;;;;;;5028296;28;21017;-85
2022/11/07 01:19:10;;;;;;;3.10;2.80;;;21.20;65.20;;;;;;5028530;28;20962;-85
2022/11/07 01:21:40;;;;;;;3.30;3.00;;;21.20;65.10;;;;;;5019391;28;20576;-85
2022/11/07 01:24:11;;;;;;;3.00;2.70;;;21.20;65.10;;;;;;5023500;28;20444;-85
2022/11/07 01:26:41;;;;;;;3.13;2.90;;;21.20;64.90;;;;;;5031344;28;20471;-85
2022/11/07 01:29:10;;;;;;;2.77;2.57;;;21.20;64.90;;;;;;5033362;28;20469;-85
2022/11/07 01:31:38;;;;;;;2.80;2.57;;;21.10;65.10;;;;;;5032927;28;20481;-85
2022/11/07 01:34:06;;;;;;;2.77;2.57;;;21.10;65.00;;;;;;5026933;28;20940;-85
2022/11/07 01:36:34;;;;;;;2.60;2.40;;;21.10;64.90;;;;;;5032441;28;20542;-85
2022/11/07 01:39:04;;;;;;;2.73;2.53;;;21.10;65.10;;;;;;5020507;28;20760;-85
2022/11/07 01:41:37;;;;;;;4.13;2.60;;;21.20;65.10;;;;;;5028864;28;20463;-85
2022/11/07 01:44:39;;;;;;;3.00;2.80;;;21.20;65.10;;;;;;5020645;28;20452;-85
2022/11/07 01:47:07;;;;;;;2.63;1.97;;;21.20;65.20;;;;;;5026233;28;20490;-85
2022/11/07 01:49:39;;;;;;;2.00;1.90;;;21.20;65.20;;;;;;5022549;28;20805;-84
2022/11/07 01:52:11;;;;;;;2.53;2.33;;;21.20;65.30;;;;;;5018777;28;20474;-84
2022/11/07 01:54:47;;;;;;;2.40;2.20;;;21.20;65.40;;;;;;5028901;28;20450;-85
2022/11/07 01:57:20;;;;;;;3.10;2.57;;;21.20;65.30;;;;;;5024616;28;20463;-84
2022/11/07 01:59:52;;;;;;;2.90;2.70;;;21.20;65.30;;;;;;5032760;28;20465;-84
2022/11/07 02:02:20;;;;;;;2.33;2.23;;;21.10;65.20;;;;;;5024241;28;20455;-84
2022/11/07 02:04:49;;;;;;;3.00;2.50;;;21.10;65.30;;;;;;5026350;28;20818;-84
2022/11/07 02:07:20;;;;;;;2.57;2.37;;;21.20;65.30;;;;;;5008519;28;20817;-84
2022/11/07 02:09:48;;;;;;;2.97;2.40;;;21.10;65.20;;;;;;5032984;28;20444;-85
2022/11/07 02:12:19;;;;;;;2.60;2.17;;;21.10;65.20;;;;;;5031087;28;20982;-85
2022/11/07 02:14:47;;;;;;;2.13;1.93;;;21.10;65.30;;;;;;5033379;28;20958;-85
2022/11/07 02:17:17;;;;;;;2.40;2.30;;;21.10;65.30;;;;;;5008604;28;20945;-84
2022/11/07 02:19:48;;;;;;;2.97;2.77;;;21.20;65.30;;;;;;5029977;28;20440;-84
2022/11/07 02:22:25;;;;;;;3.73;2.43;;;21.20;65.30;;;;;;5031474;28;20930;-85
2022/11/07 02:24:58;;;;;;;2.13;1.97;;;21.10;65.30;;;;;;5023993;28;20454;-85
2022/11/07 02:27:29;;;;;;;2.40;2.20;;;21.10;65.20;;;;;;5032117;28;20936;-85
2022/11/07 02:30:01;;;;;;;2.00;1.90;;;21.10;65.30;;;;;;5033260;28;20459;-85
2022/11/07 02:32:29;;;;;;;2.20;2.00;;;21.10;65.30;;;;;;5032671;28;20471;-85
2022/11/07 02:34:58;;;;;;;2.10;2.00;;;21.10;65.20;;;;;;5026997;28;20468;-85
2022/11/07 02:37:29;;;;;;;2.10;2.00;;;21.10;65.20;;;;;;5031143;28;20919;-84
2022/11/07 02:40:01;;;;;;;2.43;2.30;;;21.10;65.30;;;;;;5023415;28;20461;-85
2022/11/07 02:42:42;;;;;;;2.23;2.03;;;21.10;65.20;;;;;;5022304;28;20548;-85
2022/11/07 02:45:13;;;;;;;2.10;1.90;;;21.10;65.20;;;;;;5031562;28;20573;-85
2022/11/07 02:47:42;;;;;;;2.97;2.77;;;21.10;65.30;;;;;;5032477;28;20827;-85
2022/11/07 02:50:12;;;;;;;2.33;2.23;;;21.10;65.20;;;;;;5032487;28;20450;-85
2022/11/07 02:52:40;;;;;;;2.10;2.00;;;21.10;65.20;;;;;;5023015;28;20561;-86
2022/11/07 02:55:11;;;;;;;2.40;2.27;;;21.10;65.30;;;;;;5029949;28;20443;-85
2022/11/07 02:57:39;;;;;;;2.10;2.00;;;21.10;65.30;;;;;;5032372;28;20457;-85
2022/11/07 03:00:10;;;;;;;1.97;1.87;;;21.10;65.30;;;;;;5023741;28;20454;-85
2022/11/07 03:02:39;;;;;;;2.33;2.13;;;21.10;65.30;;;;;;5017001;28;20447;-85
2022/11/07 03:05:08;;;;;;;2.33;2.13;;;21.10;65.30;;;;;;5026459;28;20455;-85
2022/11/07 03:07:36;;;;;;;2.50;2.30;;;21.10;65.30;;;;;;5029447;28;20455;-85
2022/11/07 03:10:05;;;;;;;2.13;2.03;;;21.10;65.30;;;;;;5027393;28;20454;-85
2022/11/07 03:12:35;;;;;;;2.00;1.90;;;21.10;65.40;;;;;;5028156;28;20470;-84
2022/11/07 03:15:03;;;;;;;2.43;2.17;;;21.10;65.30;;;;;;5023655;28;20471;-85
2022/11/07 03:17:32;;;;;;;2.07;1.97;;;21.10;65.30;;;;;;5026372;28;20980;-85
2022/11/07 03:20:00;;;;;;;2.80;2.60;;;21.10;65.30;;;;;;5026491;28;20941;-85
2022/11/07 03:22:28;;;;;;;1.77;1.67;;;21.10;65.20;;;;;;5020751;28;20436;-85
2022/11/07 03:24:56;;;;;;;2.03;1.90;;;21.10;65.10;;;;;;5032071;28;20459;-85
2022/11/07 03:27:24;;;;;;;1.70;1.60;;;21.10;65.10;;;;;;5026756;28;20542;-84
2022/11/07 03:29:54;;;;;;;2.70;2.50;;;21.10;65.00;;;;;;5031416;28;20972;-85
2022/11/07 03:32:22;;;;;;;2.13;2.03;;;21.10;64.70;;;;;;5027062;28;20436;-85
2022/11/07 03:34:50;;;;;;;2.43;2.33;;;21.10;65.00;;;;;;5023961;28;20965;-86
2022/11/07 03:37:18;;;;;;;2.43;2.30;;;21.10;64.70;;;;;;5023438;28;20450;-85
2022/11/07 03:39:46;;;;;;;1.70;1.60;;;21.10;64.60;;;;;;5020232;28;20462;-85
2022/11/07 03:42:14;;;;;;;1.90;1.80;;;21.00;64.90;;;;;;5022177;28;20448;-85
2022/11/07 03:44:43;;;;;;;2.00;1.90;;;21.00;64.90;;;;;;5018734;28;20467;-84
2022/11/07 03:47:12;;;;;;;2.07;1.97;;;21.00;64.90;;;;;;5020487;28;20982;-85
2022/11/07 03:49:40;;;;;;;2.23;2.13;;;21.00;64.90;;;;;;5024454;28;20947;-85
2022/11/07 03:52:08;;;;;;;2.43;2.23;;;21.10;64.90;;;;;;5016938;28;20505;-86
2022/11/07 03:54:36;;;;;;;1.70;1.60;;;21.10;65.00;;;;;;5028328;28;20472;-85
2022/11/07 03:57:04;;;;;;;2.30;2.03;;;21.00;65.00;;;;;;5016464;28;20464;-85
2022/11/07 03:59:32;;;;;;;2.30;2.10;;;21.10;65.10;;;;;;5021048;28;20463;-85
2022/11/07 04:02:01;;;;;;;2.50;2.30;;;21.10;65.00;;;;;;5031131;28;20461;-85
2022/11/07 04:04:30;;;;;;;1.70;1.60;;;21.10;65.00;;;;;;5021469;28;20474;-85
2022/11/07 04:06:58;;;;;;;1.67;1.57;;;21.10;65.10;;;;;;5030533;28;20448;-85
2022/11/07 04:09:27;;;;;;;2.17;2.07;;;21.10;65.10;;;;;;5023119;28;20455;-85
2022/11/07 04:17:27;;;;;;;1.90;1.80;;;21.00;65.00;;;;;;5029199;28;20454;-86
2022/11/07 04:19:57;;;;;;;2.37;2.27;;;21.00;65.00;;;;;;5021914;28;20527;-85
2022/11/07 04:22:26;;;;;;;2.00;1.90;;;21.00;65.00;;;;;;5029516;28;20827;-85
2022/11/07 04:24:54;;;;;;;2.50;2.30;;;21.00;65.00;;;;;;5027598;28;20460;-85
2022/11/07 04:30:21;;;;;;;1.80;1.70;;;21.00;65.00;;;;;;5017164;28;20451;-85
2022/11/07 04:32:51;;;;;;;2.20;2.10;;;21.00;64.90;;;;;;5020987;28;20459;-85
2022/11/07 04:35:21;;;;;;;2.50;2.40;;;21.00;64.90;;;;;;5030390;28;20447;-85
2022/11/07 04:37:50;;;;;;;2.50;2.03;;;21.00;65.00;;;;;;5030147;28;20459;-85
2022/11/07 04:40:19;;;;;;;2.37;2.17;;;21.00;65.00;;;;;;5026066;28;20463;-86
2022/11/07 04:42:48;;;;;;;1.80;1.70;;;21.00;65.00;;;;;;5029810;28;20448;-85
2022/11/07 04:45:16;;;;;;;2.30;2.10;;;21.00;65.00;;;;;;5028025;28;20470;-85
2022/11/07 04:47:45;;;;;;;1.93;1.83;;;21.00;65.00;;;;;;5035042;28;20986;-85
2022/11/07 04:50:16;;;;;;;2.27;2.07;;;21.00;65.10;;;;;;5029489;28;20452;-84
2022/11/07 04:52:46;;;;;;;1.90;1.80;;;21.00;65.10;;;;;;5029057;28;20453;-85
2022/11/07 04:55:20;;;;;;;2.60;2.40;;;21.00;65.00;;;;;;5031512;28;20479;-85
2022/11/07 04:57:49;;;;;;;2.27;2.10;;;21.00;65.10;;;;;;5028628;28;20469;-85
2022/11/07 05:00:18;;;;;;;1.70;1.60;;;21.00;65.10;;;;;;5023250;28;20454;-85
2022/11/07 05:02:48;;;;;;;2.33;2.23;;;21.00;65.10;;;;;;5022950;28;20475;-86
2022/11/07 05:05:18;;;;;;;2.37;2.17;;;21.00;65.10;;;;;;5031948;28;20454;-86
2022/11/07 05:07:48;;;;;;;3.10;2.80;;;21.00;65.10;;;;;;5035717;28;20441;-85
2022/11/07 05:10:19;;;;;;;2.20;1.67;;;21.00;65.10;;;;;;5035249;28;20461;-85
2022/11/07 05:12:47;;;;;;;3.60;2.17;;;21.00;65.10;;;;;;5028759;28;20529;-86
2022/11/07 05:15:16;;;;;;;2.03;1.83;;;21.00;65.10;;;;;;5033913;28;20849;-85
2022/11/07 05:17:45;;;;;;;1.87;1.77;;;21.00;65.10;;;;;;5031790;28;20460;-85
2022/11/07 05:20:27;;;;;;;1.90;1.80;;;21.00;65.00;;;;;;5028191;28;20471;-84
2022/11/07 05:23:13;;;;;;;1.73;1.63;;;21.00;65.10;;;;;;5028929;28;20898;-86
2022/11/07 05:25:44;;;;;;;2.60;1.90;;;21.00;65.10;;;;;;5031711;28;20813;-85
2022/11/07 05:28:14;;;;;;;1.77;1.63;;;21.00;65.10;;;;;;5031985;28;20821;-85
2022/11/07 05:30:43;;;;;;;1.97;1.83;;;21.00;65.10;;;;;;5031337;28;20473;-85
2022/11/07 05:33:13;;;;;;;1.93;1.70;;;21.00;65.00;;;;;;5025950;28;20450;-86
2022/11/07 05:35:42;;;;;;;1.80;1.47;;;21.10;65.20;;;;;;5032499;28;20510;-85
2022/11/07 05:38:12;;;;;;;1.90;1.80;;;21.10;65.30;;;;;;5030080;28;20459;-85
2022/11/07 05:40:41;;;;;;;2.37;2.17;;;21.10;65.30;;;;;;5031125;28;20866;-85
2022/11/07 05:43:10;;;;;;;5.30;2.20;;;21.10;66.20;;;;;;5033322;28;20457;-85
2022/11/07 05:45:40;;;;;;;3.13;2.10;;;21.10;66.90;;;;;;5026540;28;20479;-85
2022/11/07 05:48:10;;;;;;;2.90;2.20;;;21.10;66.80;;;;;;5032645;28;20493;-85
2022/11/07 05:50:38;;;;;;;3.33;2.20;;;21.10;67.00;;;;;;5027447;28;20538;-85
2022/11/07 05:53:07;;;;;;;2.33;1.83;;;21.10;67.00;;;;;;5031032;28;20505;-84
2022/11/07 05:55:37;;;;;;;2.77;2.40;;;21.10;67.00;;;;;;5024800;28;20479;-83
2022/11/07 05:58:08;;;;;;;5.70;2.20;;;21.10;67.10;;;;;;5029622;28;20470;-84
2022/11/07 06:00:37;;;;;;;5.23;3.47;;;21.10;67.00;;;;;;5028574;28;20459;-84
2022/11/07 06:03:05;;;;;;;3.63;3.33;;;21.20;66.90;;;;;;5030240;28;21303;-82
2022/11/07 06:05:33;;;;;;;4.10;1.97;;;21.20;66.90;;;;;;5028776;28;20521;-81
2022/11/07 06:08:01;;;;;;;2.17;1.97;;;21.20;66.90;;;;;;5029163;28;20449;-83
2022/11/07 06:10:29;;;;;;;5.10;2.20;;;21.20;67.20;;;;;;5028568;28;20510;-83
2022/11/07 06:13:00;;;;;;;2.40;2.20;;;21.20;67.20;;;;;;5023228;28;20467;-80
2022/11/07 06:15:29;;;;;;;6.27;2.70;;;21.20;67.20;;;;;;5027056;28;20486;-84
2022/11/07 06:18:00;;;;;;;3.27;1.97;;;21.20;67.20;;;;;;5025099;28;20462;-83
2022/11/07 06:20:29;;;;;;;2.50;2.17;;;21.20;67.20;;;;;;5025950;28;20962;-85
2022/11/07 06:22:58;;;;;;;2.50;2.30;;;21.20;67.50;;;;;;5027762;28;20455;-84
2022/11/07 06:25:26;;;;;;;3.63;2.20;;;21.20;67.60;;;;;;5031499;28;20477;-85
2022/11/07 06:28:00;;;;;;;3.10;2.13;;;21.10;67.60;;;;;;5030082;28;20457;-84
2022/11/07 06:30:29;;;;;;;22.50;8.07;;;21.10;67.30;;;;;;5031422;28;20444;-85
2022/11/07 06:33:01;;;;;;;19.03;6.90;;;21.10;66.90;;;;;;5025059;28;20469;-85
2022/11/07 06:35:29;;;;;;;10.23;5.07;;;21.10;66.50;;;;;;5026031;28;20982;-86
2022/11/07 06:38:01;;;;;;;14.30;5.57;;;21.10;67.00;;;;;;5024536;28;20490;-84
2022/11/07 06:40:29;;;;;;;14.77;4.70;;;21.10;66.90;;;;;;5022293;28;20463;-84
2022/11/07 06:43:06;;;;;;;9.17;4.10;;;21.10;66.90;;;;;;5029834;28;20465;-83
2022/11/07 06:45:35;;;;;;;6.40;4.20;;;21.10;66.90;;;;;;5028849;28;20473;-84
2022/11/07 06:48:03;;;;;;;13.20;4.10;;;21.10;66.80;;;;;;5029866;28;20989;-84
2022/11/07 06:50:32;;;;;;;5.20;3.60;;;21.10;66.90;;;;;;5023752;28;20479;-84
2022/11/07 06:53:04;;;;;;;6.20;3.57;;;21.10;66.90;;;;;;5028161;28;20458;-84
2022/11/07 06:55:34;;;;;;;6.33;3.57;;;21.20;66.90;;;;;;5027540;28;20490;-84
2022/11/07 06:58:03;;;;;;;10.30;3.70;;;21.20;66.90;;;;;;5023499;28;20513;-84
2022/11/07 07:00:34;;;;;;;5.80;4.00;;;21.10;66.80;;;;;;5028469;28;20557;-84
2022/11/07 07:03:03;;;;;;;6.17;3.80;;;21.20;66.80;;;;;;5027946;28;20453;-85
2022/11/07 07:05:32;;;;;;;6.30;3.87;;;21.20;66.80;;;;;;5025914;28;20468;-84
2022/11/07 07:08:00;;;;;;;4.80;3.40;;;21.20;66.80;;;;;;5028571;28;20443;-84
2022/11/07 07:10:29;;;;;;;6.40;3.63;;;21.20;66.80;;;;;;5025257;28;20450;-84
2022/11/07 07:12:57;;;;;;;6.60;3.43;;;21.20;66.80;;;;;;5025422;28;20453;-84
2022/11/07 07:15:25;;;;;;;4.63;3.30;;;21.20;66.70;;;;;;5029955;28;20804;-84
2022/11/07 07:17:58;;;;;;;3.23;2.93;;;21.20;66.60;;;;;;5031338;28;20450;-84
2022/11/07 07:20:27;;;;;;;5.60;3.43;;;21.20;66.70;;;;;;5027693;28;20450;-85
2022/11/07 07:22:55;;;;;;;4.27;3.50;;;21.20;66.60;;;;;;5026071;28;20476;-83
2022/11/07 07:25:31;;;;;;;3.83;3.23;;;21.20;66.60;;;;;;5030408;28;20449;-84
2022/11/07 07:27:59;;;;;;;7.50;3.17;;;21.20;66.60;;;;;;5025117;28;20556;-82
2022/11/07 07:30:27;;;;;;;6.80;3.70;;;21.20;66.60;;;;;;5031874;28;20447;-81
2022/11/07 07:32:57;;;;;;;4.00;2.93;;;21.20;66.70;;;;;;5030813;28;20891;-85
2022/11/07 07:35:25;;;;;;;3.70;2.80;;;21.20;66.80;;;;;;5024556;28;20488;-82
2022/11/07 07:37:53;;;;;;;4.63;3.07;;;21.20;66.90;;;;;;5030640;28;20452;-82
2022/11/07 07:40:22;;;;;;;6.20;3.87;;;21.30;66.90;;;;;;5031536;28;20464;-80
2022/11/07 07:42:50;;;;;;;6.10;4.10;;;21.30;67.00;;;;;;5028396;28;20725;-81
2022/11/07 07:45:18;;;;;;;8.30;3.67;;;21.30;66.70;;;;;;5029314;28;20467;-82
2022/11/07 07:47:46;;;;;;;3.23;2.80;;;21.30;66.60;;;;;;5027040;28;20486;-84
2022/11/07 07:50:16;;;;;;;3.07;2.60;;;21.30;66.80;;;;;;5022304;28;20991;-84
2022/11/07 07:52:44;;;;;;;3.77;3.10;;;21.30;66.80;;;;;;5026892;28;20922;-83
2022/11/07 07:55:12;;;;;;;5.20;2.80;;;21.40;66.70;;;;;;5030767;28;20472;-84
2022/11/07 07:57:41;;;;;;;6.37;3.50;;;21.40;66.70;;;;;;5002828;28;20479;-85
2022/11/07 08:00:11;;;;;;;3.83;3.43;;;21.40;66.60;;;;;;5002275;28;20539;-84
2022/11/07 08:02:42;;;;;;;4.13;2.50;;;21.40;66.50;;;;;;5028796;28;20441;-83
2022/11/07 08:05:11;;;;;;;6.03;3.03;;;21.50;66.70;;;;;;5027568;28;20902;-85
2022/11/07 08:07:47;;;;;;;2.70;2.50;;;21.50;66.70;;;;;;5031558;28;20549;-84
2022/11/07 08:10:15;;;;;;;3.30;2.73;;;21.50;66.60;;;;;;5010175;28;20467;-84
2022/11/07 08:13:03;;;;;;;6.70;2.90;;;21.50;66.60;;;;;;5024117;28;20459;-85
2022/11/07 08:15:32;;;;;;;4.00;3.07;;;21.60;66.60;;;;;;5029674;28;20482;-84
2022/11/07 08:18:03;;;;;;;2.93;2.60;;;21.60;66.50;;;;;;5030049;28;20525;-84
2022/11/07 08:20:31;;;;;;;4.80;2.70;;;21.60;66.50;;;;;;5031110;28;20469;-81
2022/11/07 08:23:05;;;;;;;4.30;2.83;;;21.60;66.40;;;;;;5031688;28;20450;-81
2022/11/07 08:25:43;;;;;;;3.40;2.93;;;21.60;66.20;;;;;;5030935;28;20979;-83
2022/11/07 08:28:11;;;;;;;3.20;2.70;;;21.60;66.40;;;;;;5031386;28;20494;-82
2022/11/07 08:30:39;;;;;;;4.17;3.63;;;21.60;66.40;;;;;;5031711;28;20454;-84
2022/11/07 08:33:08;;;;;;;3.30;3.10;;;21.70;66.40;;;;;;5033001;28;20460;-83
2022/11/07 08:35:36;;;;;;;2.03;1.93;;;21.70;66.20;;;;;;5028709;28;20516;-83
2022/11/07 08:38:11;;;;;;;5.83;2.80;;;21.70;66.20;;;;;;5034943;28;20538;-83
2022/11/07 08:40:39;;;;;;;3.03;2.70;;;21.70;66.20;;;;;;5034978;28;20546;-85
2022/11/07 08:43:07;;;;;;;3.00;2.70;;;21.70;66.10;;;;;;5032852;28;20756;-85
2022/11/07 08:45:35;;;;;;;3.10;2.90;;;21.70;66.10;;;;;;5033699;28;20537;-86
2022/11/07 08:48:04;;;;;;;3.10;2.90;;;21.80;66.10;;;;;;5031234;28;21003;-85
2022/11/07 08:50:32;;;;;;;3.20;2.50;;;21.80;66.00;;;;;;5029721;28;20465;-85
2022/11/07 08:53:00;;;;;;;2.97;2.70;;;21.80;66.00;;;;;;5032305;28;20448;-84
2022/11/07 08:55:32;;;;;;;3.30;3.00;;;21.80;65.90;;;;;;5025277;28;20476;-86
2022/11/07 08:58:04;;;;;;;2.80;2.60;;;21.80;65.90;;;;;;5029751;28;20907;-85
2022/11/07 09:00:32;;;;;;;2.80;2.33;;;21.80;65.90;;;;;;5034118;28;20542;-85
2022/11/07 09:03:02;;;;;;;2.80;2.60;;;21.80;65.90;;;;;;5027227;28;20546;-83
2022/11/07 09:05:50;;;;;;;3.97;3.27;;;21.80;65.90;;;;;;5011396;28;21046;-83
2022/11/07 09:08:19;;;;;;;3.93;2.63;;;21.90;65.90;;;;;;5012647;28;20461;-82
2022/11/07 09:10:48;;;;;;;4.87;3.40;;;21.90;65.90;;;;;;5033403;28;20447;-83
2022/11/07 09:13:16;;;;;;;3.07;2.60;;;21.90;65.90;;;;;;5027067;28;20467;-83
2022/11/07 09:15:45;;;;;;;3.93;2.77;;;21.90;65.90;;;;;;5029421;28;20478;-84
2022/11/07 09:18:19;;;;;;;5.37;3.23;;;21.90;65.90;;;;;;5020232;28;20812;-84
2022/11/07 09:20:47;;;;;;;4.00;2.97;;;21.90;65.80;;;;;;5022731;28;20861;-81
2022/11/07 09:23:15;;;;;;;4.43;2.83;;;22.00;65.80;;;;;;5021760;28;20467;-82
2022/11/07 09:25:44;;;;;;;3.47;2.67;;;22.00;65.80;;;;;;5028819;28;20470;-82
2022/11/07 09:28:14;;;;;;;3.97;2.63;;;22.00;65.80;;;;;;5026406;28;20959;-82
2022/11/07 09:30:43;;;;;;;3.23;2.93;;;22.00;65.70;;;;;;5029242;28;20463;-83
2022/11/07 09:33:11;;;;;;;4.90;2.67;;;22.00;65.80;;;;;;5027123;28;20862;-81
2022/11/07 09:35:39;;;;;;;3.90;3.57;;;22.00;65.70;;;;;;5030496;28;20470;-83
2022/11/07 09:38:07;;;;;;;2.60;2.47;;;22.00;65.80;;;;;;5029911;28;20455;-83
2022/11/07 09:40:45;;;;;;;3.20;2.87;;;22.00;65.70;;;;;;5026841;28;20462;-84
2022/11/07 09:43:38;;;;;;;3.30;2.60;;;22.00;65.70;;;;;;5010389;28;20951;-83
2022/11/07 09:46:20;;;;;;;4.30;2.57;;;22.00;65.70;;;;;;5032157;28;20486;-83
2022/11/07 09:48:54;;;;;;;4.43;2.10;;;22.00;65.70;;;;;;5025962;28;20468;-83
2022/11/07 09:51:28;;;;;;;4.43;2.43;;;22.00;65.70;;;;;;5024167;28;20462;-82
2022/11/07 09:54:01;;;;;;;2.40;2.20;;;22.10;65.60;;;;;;5025791;28;20465;-83
2022/11/07 09:56:31;;;;;;;2.50;2.30;;;22.10;65.50;;;;;;5026319;28;20502;-82
2022/11/07 09:59:06;;;;;;;2.70;2.40;;;22.10;65.50;;;;;;5024641;28;20943;-82
2022/11/07 10:01:41;;;;;;;3.17;2.83;;;22.10;65.50;;;;;;5024028;28;20476;-83
2022/11/07 10:04:15;;;;;;;2.93;2.60;;;22.10;65.50;;;;;;5026328;28;20464;-84
2022/11/07 10:06:59;;;;;;;4.67;2.43;;;22.10;65.30;;;;;;5024395;28;20467;-81
2022/11/07 10:09:38;;;;;;;7.70;3.20;;;22.10;65.00;;;;;;5028217;28;20455;-80
2022/11/07 10:12:15;;;;;;;2.67;2.30;;;22.10;65.40;;;;;;5026387;28;21535;-80
2022/11/07 10:14:53;;;;;;;3.00;2.80;;;22.10;65.50;;;;;;5026427;28;20954;-80
2022/11/07 10:17:27;;;;;;;2.90;2.27;;;22.20;65.50;;;;;;5022935;28;20502;-83
2022/11/07 10:20:09;;;;;;;2.83;2.63;;;22.20;65.60;;;;;;5028323;28;20543;-81
2022/11/07 10:22:49;;;;;;;2.63;2.43;;;22.20;65.60;;;;;;5025350;28;20468;-82
2022/11/07 10:25:24;;;;;;;3.00;2.70;;;22.30;65.50;;;;;;5027400;28;20461;-81
2022/11/07 10:28:01;;;;;;;2.60;2.40;;;22.30;65.50;;;;;;5020927;28;20907;-81
2022/11/07 10:30:30;;;;;;;3.23;2.93;;;22.40;65.30;;;;;;5030203;28;20456;-82
2022/11/07 10:33:07;;;;;;;2.40;2.20;;;22.50;65.10;;;;;;5025703;28;20447;-82
2022/11/07 10:35:41;;;;;;;2.53;2.03;;;22.50;65.00;;;;;;5022690;28;20453;-82
2022/11/07 10:38:17;;;;;;;2.27;2.10;;;22.60;64.90;;;;;;5027962;28;20557;-81
2022/11/07 10:40:46;;;;;;;3.93;2.60;;;22.60;64.90;;;;;;5029158;28;20510;-81
2022/11/07 10:43:22;;;;;;;2.40;2.23;;;22.70;64.90;;;;;;5026313;28;20453;-81
2022/11/07 10:45:54;;;;;;;2.20;2.00;;;22.70;64.80;;;;;;5024760;28;20476;-82
2022/11/07 10:48:22;;;;;;;4.30;3.90;;;22.70;64.80;;;;;;5027365;28;20449;-83
2022/11/07 10:50:54;;;;;;;2.20;2.00;;;22.80;64.70;;;;;;5027766;28;20468;-82
2022/11/07 10:53:24;;;;;;;2.40;2.20;;;22.80;64.70;;;;;;5026392;28;20504;-83
2022/11/07 10:55:54;;;;;;;3.03;2.50;;;22.80;64.60;;;;;;5028856;28;20444;-82
2022/11/07 10:58:24;;;;;;;2.30;2.10;;;22.80;64.50;;;;;;5028223;28;20467;-81
2022/11/07 11:01:05;;;;;;;2.30;2.10;;;22.90;64.50;;;;;;5029811;28;20471;-81
2022/11/07 11:03:40;;;;;;;2.33;2.13;;;22.90;64.50;;;;;;5027352;28;20466;-82
2022/11/07 11:06:23;;;;;;;3.57;2.77;;;22.80;64.50;;;;;;5020914;28;20474;-82
2022/11/07 11:08:53;;;;;;;2.43;2.23;;;22.80;64.60;;;;;;5026726;28;20449;-83
2022/11/07 11:11:31;;;;;;;2.33;2.10;;;22.80;64.70;;;;;;5026095;28;20528;-82
2022/11/07 11:14:05;;;;;;;7.53;2.10;;;22.80;64.80;;;;;;5024643;28;20925;-82
2022/11/07 11:16:38;;;;;;;2.20;2.00;;;22.90;64.70;;;;;;5029500;28;20939;-81
2022/11/07 11:19:17;;;;;;;2.33;2.13;;;22.90;64.70;;;;;;5026851;28;20505;-81
2022/11/07 11:21:47;;;;;;;3.00;2.17;;;22.90;64.60;;;;;;5020820;28;20544;-81
2022/11/07 11:24:29;;;;;;;2.80;2.60;;;22.90;64.60;;;;;;5022959;28;20445;-83
2022/11/07 11:27:01;;;;;;;2.60;2.40;;;22.90;64.60;;;;;;5030034;28;20470;-82
2022/11/07 11:29:37;;;;;;;6.13;1.80;;;22.90;64.50;;;;;;5021430;28;20480;-83
2022/11/07 11:32:20;;;;;;;2.70;2.10;;;22.90;64.40;;;;;;5022629;28;20451;-81
2022/11/07 11:35:02;;;;;;;2.70;2.50;;;22.90;64.30;;;;;;5023523;28;20452;-82
2022/11/07 11:37:34;;;;;;;2.20;2.10;;;22.90;64.20;;;;;;5022970;28;20478;-81
2022/11/07 11:40:14;;;;;;;2.50;2.20;;;22.80;64.20;;;;;;5025531;28;20453;-80
2022/11/07 11:42:54;;;;;;;2.80;2.60;;;22.80;64.20;;;;;;5028002;28;20785;-79
2022/11/07 11:45:33;;;;;;;2.60;2.20;;;22.80;64.20;;;;;;5026783;28;20808;-80
2022/11/07 11:48:11;;;;;;;3.80;2.17;;;22.70;64.20;;;;;;5027849;28;20496;-79
2022/11/07 11:50:44;;;;;;;2.23;2.00;;;22.70;64.30;;;;;;5026628;28;20453;-79
2022/11/07 11:53:18;;;;;;;3.50;2.17;;;22.70;64.40;;;;;;5024376;28;20453;-80
2022/11/07 11:55:57;;;;;;;2.20;2.10;;;22.70;64.30;;;;;;5030380;28;20456;-80
2022/11/07 11:58:39;;;;;;;2.43;2.33;;;22.80;64.30;;;;;;5023699;28;20479;-81
2022/11/07 12:01:18;;;;;;;2.90;1.90;;;22.80;64.20;;;;;;5018512;28;20487;-81
2022/11/07 12:04:21;;;;;;;2.53;2.10;;;22.80;64.00;;;;;;5027154;28;20457;-81
2022/11/07 12:06:52;;;;;;;2.27;2.07;;;22.80;63.90;;;;;;5019162;28;20463;-80
2022/11/07 12:09:36;;;;;;;3.03;2.60;;;22.80;63.90;;;;;;5027801;28;20452;-80
2022/11/07 12:12:25;;;;;;;3.40;3.10;;;22.70;64.00;;;;;;5022193;28;20465;-80
2022/11/07 12:15:11;;;;;;;3.93;3.37;;;22.70;64.00;;;;;;5028619;28;20452;-79
2022/11/07 12:17:48;;;;;;;5.90;3.30;;;22.70;64.30;;;;;;5024520;28;20486;-79
2022/11/07 12:20:26;;;;;;;4.77;4.27;;;22.70;64.40;;;;;;5021708;28;20468;-78
2022/11/07 12:23:05;;;;;;;5.23;4.10;;;22.70;64.50;;;;;;5020858;28;20717;-80
2022/11/07 12:25:40;;;;;;;4.37;3.90;;;22.70;64.30;;;;;;5026587;28;20885;-80
2022/11/07 12:28:30;;;;;;;3.90;3.43;;;22.70;64.30;;;;;;5028340;28;20455;-80
2022/11/07 12:31:09;;;;;;;6.40;5.50;;;22.70;64.30;;;;;;5024808;28;20457;-80
2022/11/07 12:33:45;;;;;;;6.70;5.00;;;22.70;64.40;;;;;;5023047;28;20464;-80
2022/11/07 12:36:25;;;;;;;6.07;4.90;;;22.70;64.40;;;;;;5020649;28;20457;-80
2022/11/07 12:39:15;;;;;;;6.53;4.70;;;22.80;64.40;;;;;;5019879;28;20577;-80
2022/11/07 12:41:51;;;;;;;8.00;5.97;;;22.80;64.20;;;;;;5025414;28;20456;-80
2022/11/07 12:44:34;;;;;;;8.07;5.40;;;22.90;64.10;;;;;;5021936;28;20536;-80
2022/11/07 12:47:10;;;;;;;11.17;6.13;;;23.00;63.80;;;;;;5020440;28;20501;-80
2022/11/07 12:49:51;;;;;;;8.30;5.43;;;23.10;63.70;;;;;;5026288;28;20940;-80
2022/11/07 12:52:38;;;;;;;9.60;6.40;;;23.20;63.50;;;;;;5026468;28;20461;-80
2022/11/07 12:55:19;;;;;;;7.03;5.50;;;23.20;63.40;;;;;;5018397;28;20550;-80
2022/11/07 12:57:51;;;;;;;5.73;5.13;;;23.30;63.10;;;;;;5024834;28;20992;-81
2022/11/07 13:00:22;;;;;;;8.50;6.00;;;23.40;63.00;;;;;;5030152;28;20476;-81
2022/11/07 13:03:21;;;;;;;8.20;6.03;;;23.40;63.00;;;;;;5030506;28;20453;-80
2022/11/07 13:05:59;;;;;;;7.67;5.73;;;23.50;63.10;;;;;;5031081;28;20450;-81
2022/11/07 13:08:35;;;;;;;7.87;5.43;;;23.50;63.10;;;;;;5029225;28;20997;-80
2022/11/07 13:11:16;;;;;;;8.17;5.20;;;23.60;63.10;;;;;;5030629;28;20461;-81
2022/11/07 13:14:15;;;;;;;9.27;5.40;;;23.70;63.10;;;;;;5029807;28;20473;-82
2022/11/07 13:16:52;;;;;;;8.73;5.63;;;23.70;63.00;;;;;;5030328;28;20467;-82
2022/11/07 13:19:30;;;;;;;8.23;6.13;;;23.80;62.90;;;;;;5023119;28;20483;-79
2022/11/07 13:22:02;;;;;;;6.70;5.10;;;23.90;63.00;;;;;;5021761;28;20455;-80